sensor_id;sensor_type;location;lat;lon;timestamp;pressure;altitude;pressure_sealevel;temperature;humidity
13695;BME280;6919;52.344;14.518;2023-04-30T00:00:36;101063.19;;;8.80;100.00
13695;BME280;6919;52.344;14.518;2023-04-30T00:03:04;101063.34;;;8.79;100.00
13695;BME280;6919;52.344;14.518;2023-04-30T00:05:33;101074.06;;;8.68;100.00
13695;BME280;6919;52.344;14.518;2023-04-30T00:08:01;101070.50;;;8.58;100.00
13695;BME280;6919;52.344;14.518;2023-04-30T00:10:30;101070.50;;;8.58;100.00
13695;BME280;6919;52.344;14.518;2023-04-30T00:12:59;101072.19;;;8.59;100.00
13695;BME280;6919;52.344;14.518;2023-04-30T00:15:27;101070.91;;;8.53;100.00
13695;BME280;6919;52.344;14.518;2023-04-30T00:17:55;101072.78;;;8.42;100.00
13695;BME280;6919;52.344;14.518;2023-04-30T00:20:24;101071.09;;;8.41;100.00
13695;BME280;6919;52.344;14.518;2023-04-30T00:22:52;101072.63;;;8.43;100.00
13695;BME280;6919;52.344;14.518;2023-04-30T00:25:21;101071.66;;;8.44;100.00
13695;BME280;6919;52.344;14.518;2023-04-30T00:27:50;101072.91;;;8.40;100.00
13695;BME280;6919;52.344;14.518;2023-04-30T00:30:20;101070.59;;;8.36;100.00
13695;BME280;6919;52.344;14.518;2023-04-30T00:32:48;101077.31;;;8.30;100.00
13695;BME280;6919;52.344;14.518;2023-04-30T00:35:17;101069.16;;;8.32;100.00
13695;BME280;6919;52.344;14.518;2023-04-30T00:37:45;101066.03;;;8.27;100.00
13695;BME280;6919;52.344;14.518;2023-04-30T00:40:13;101077.31;;;8.19;100.00
13695;BME280;6919;52.344;14.518;2023-04-30T00:42:42;101071.66;;;8.13;100.00
13695;BME280;6919;52.344;14.518;2023-04-30T00:45:10;101077.50;;;8.07;100.00
13695;BME280;6919;52.344;14.518;2023-04-30T00:47:40;101083.47;;;7.99;100.00
13695;BME280;6919;52.344;14.518;2023-04-30T00:50:09;101082.53;;;7.89;100.00
13695;BME280;6919;52.344;14.518;2023-04-30T00:52:41;101087.88;;;7.89;100.00
13695;BME280;6919;52.344;14.518;2023-04-30T00:55:11;101090.09;;;7.73;100.00
13695;BME280;6919;52.344;14.518;2023-04-30T00:57:40;101100.19;;;7.70;100.00
13695;BME280;6919;52.344;14.518;2023-04-30T01:00:09;101101.75;;;7.61;100.00
13695;BME280;6919;52.344;14.518;2023-04-30T01:02:39;101100.19;;;7.59;100.00
13695;BME280;6919;52.344;14.518;2023-04-30T01:05:08;101096.56;;;7.49;100.00
13695;BME280;6919;52.344;14.518;2023-04-30T01:07:38;101110.16;;;7.46;100.00
13695;BME280;6919;52.344;14.518;2023-04-30T01:10:12;101108.06;;;7.38;100.00
13695;BME280;6919;52.344;14.518;2023-04-30T01:12:51;101108.44;;;7.34;100.00
13695;BME280;6919;52.344;14.518;2023-04-30T01:15:27;101117.88;;;7.27;100.00
13695;BME280;6919;52.344;14.518;2023-04-30T01:18:06;101121.28;;;7.18;100.00
13695;BME280;6919;52.344;14.518;2023-04-30T01:20:42;101129.03;;;7.10;100.00
13695;BME280;6919;52.344;14.518;2023-04-30T01:23:27;101120.56;;;7.27;100.00
13695;BME280;6919;52.344;14.518;2023-04-30T01:26:12;101124.19;;;7.26;100.00
13695;BME280;6919;52.344;14.518;2023-04-30T01:28:45;101119.84;;;7.25;100.00
13695;BME280;6919;52.344;14.518;2023-04-30T01:31:15;101125.75;;;7.17;100.00
13695;BME280;6919;52.344;14.518;2023-04-30T01:33:45;101119.59;;;7.17;100.00
13695;BME280;6919;52.344;14.518;2023-04-30T01:36:32;101131.34;;;7.14;100.00
13695;BME280;6919;52.344;14.518;2023-04-30T01:39:19;101138.50;;;7.14;100.00
13695;BME280;6919;52.344;14.518;2023-04-30T01:42:07;101138.97;;;7.08;100.00
13695;BME280;6919;52.344;14.518;2023-04-30T01:45:08;101134.72;;;7.05;100.00
13695;BME280;6919;52.344;14.518;2023-04-30T01:47:47;101135.53;;;6.95;100.00
13695;BME280;6919;52.344;14.518;2023-04-30T01:50:28;101135.53;;;6.95;100.00
13695;BME280;6919;52.344;14.518;2023-04-30T01:53:02;101138.19;;;6.84;100.00
13695;BME280;6919;52.344;14.518;2023-04-30T01:55:42;101145.72;;;6.90;100.00
13695;BME280;6919;52.344;14.518;2023-04-30T01:58:14;101147.28;;;6.81;100.00
13695;BME280;6919;52.344;14.518;2023-04-30T02:00:44;101152.03;;;6.89;100.00
13695;BME280;6919;52.344;14.518;2023-04-30T02:03:12;101149.34;;;6.78;100.00
13695;BME280;6919;52.344;14.518;2023-04-30T02:05:41;101156.22;;;6.69;100.00
13695;BME280;6919;52.344;14.518;2023-04-30T02:08:09;101157.53;;;6.64;100.00
13695;BME280;6919;52.344;14.518;2023-04-30T02:10:37;101164.50;;;6.54;100.00
13695;BME280;6919;52.344;14.518;2023-04-30T02:13:06;101173.66;;;6.39;100.00
13695;BME280;6919;52.344;14.518;2023-04-30T02:15:35;101173.34;;;6.31;100.00
13695;BME280;6919;52.344;14.518;2023-04-30T02:18:04;101179.59;;;6.19;100.00
13695;BME280;6919;52.344;14.518;2023-04-30T02:20:32;101175.78;;;6.10;100.00
13695;BME280;6919;52.344;14.518;2023-04-30T02:23:01;101178.03;;;6.03;100.00
13695;BME280;6919;52.344;14.518;2023-04-30T02:25:29;101181.25;;;5.96;100.00
13695;BME280;6919;52.344;14.518;2023-04-30T02:27:58;101186.78;;;5.93;100.00
13695;BME280;6919;52.344;14.518;2023-04-30T02:30:27;101187.88;;;5.90;100.00
13695;BME280;6919;52.344;14.518;2023-04-30T02:32:55;101189.66;;;5.90;100.00
13695;BME280;6919;52.344;14.518;2023-04-30T02:35:25;101186.50;;;5.85;100.00
13695;BME280;6919;52.344;14.518;2023-04-30T02:37:53;101199.22;;;5.80;100.00
13695;BME280;6919;52.344;14.518;2023-04-30T02:40:21;101196.28;;;5.84;100.00
13695;BME280;6919;52.344;14.518;2023-04-30T02:42:50;101205.31;;;5.94;100.00
13695;BME280;6919;52.344;14.518;2023-04-30T02:45:19;101205.75;;;5.88;100.00
13695;BME280;6919;52.344;14.518;2023-04-30T02:47:48;101202.47;;;5.85;100.00
13695;BME280;6919;52.344;14.518;2023-04-30T02:50:16;101202.47;;;5.85;100.00
13695;BME280;6919;52.344;14.518;2023-04-30T02:52:46;101193.91;;;5.80;100.00
13695;BME280;6919;52.344;14.518;2023-04-30T02:55:14;101203.84;;;5.78;100.00
13695;BME280;6919;52.344;14.518;2023-04-30T02:57:42;101206.09;;;5.71;100.00
13695;BME280;6919;52.344;14.518;2023-04-30T03:00:12;101206.31;;;5.68;100.00
13695;BME280;6919;52.344;14.518;2023-04-30T03:02:40;101208.75;;;5.71;100.00
13695;BME280;6919;52.344;14.518;2023-04-30T03:05:09;101203.63;;;5.68;100.00
13695;BME280;6919;52.344;14.518;2023-04-30T03:07:38;101208.84;;;5.70;100.00
13695;BME280;6919;52.344;14.518;2023-04-30T03:10:09;101212.88;;;5.75;100.00
13695;BME280;6919;52.344;14.518;2023-04-30T03:12:37;101216.06;;;5.68;100.00
13695;BME280;6919;52.344;14.518;2023-04-30T03:15:07;101215.66;;;5.74;100.00
13695;BME280;6919;52.344;14.518;2023-04-30T03:17:36;101222.78;;;5.61;100.00
13695;BME280;6919;52.344;14.518;2023-04-30T03:20:05;101221.50;;;5.54;100.00
13695;BME280;6919;52.344;14.518;2023-04-30T03:22:34;101229.19;;;5.46;100.00
13695;BME280;6919;52.344;14.518;2023-04-30T03:25:02;101222.69;;;5.50;100.00
13695;BME280;6919;52.344;14.518;2023-04-30T03:27:32;101222.78;;;5.48;100.00
13695;BME280;6919;52.344;14.518;2023-04-30T03:30:01;101231.63;;;5.49;100.00
13695;BME280;6919;52.344;14.518;2023-04-30T03:32:29;101225.88;;;5.55;100.00
13695;BME280;6919;52.344;14.518;2023-04-30T03:34:57;101228.00;;;5.62;100.00
13695;BME280;6919;52.344;14.518;2023-04-30T03:37:25;101228.53;;;5.55;100.00
13695;BME280;6919;52.344;14.518;2023-04-30T03:39:54;101240.25;;;5.52;100.00
13695;BME280;6919;52.344;14.518;2023-04-30T03:42:22;101238.97;;;5.45;100.00
13695;BME280;6919;52.344;14.518;2023-04-30T03:44:52;101236.50;;;5.42;100.00
13695;BME280;6919;52.344;14.518;2023-04-30T03:47:21;101234.72;;;5.43;100.00
13695;BME280;6919;52.344;14.518;2023-04-30T03:49:49;101237.16;;;5.58;100.00
13695;BME280;6919;52.344;14.518;2023-04-30T03:52:21;101232.91;;;5.56;100.00
13695;BME280;6919;52.344;14.518;2023-04-30T03:54:50;101238.34;;;5.42;100.00
13695;BME280;6919;52.344;14.518;2023-04-30T03:57:18;101244.72;;;5.52;100.00
13695;BME280;6919;52.344;14.518;2023-04-30T03:59:47;101250.66;;;5.55;100.00
13695;BME280;6919;52.344;14.518;2023-04-30T04:02:17;101254.50;;;5.51;100.00
13695;BME280;6919;52.344;14.518;2023-04-30T04:04:46;101256.75;;;5.57;100.00
13695;BME280;6919;52.344;14.518;2023-04-30T04:07:14;101260.44;;;5.67;100.00
13695;BME280;6919;52.344;14.518;2023-04-30T04:09:43;101265.34;;;5.61;100.00
13695;BME280;6919;52.344;14.518;2023-04-30T04:12:11;101268.88;;;5.61;100.00
13695;BME280;6919;52.344;14.518;2023-04-30T04:14:39;101273.66;;;5.69;100.00
13695;BME280;6919;52.344;14.518;2023-04-30T04:17:07;101272.84;;;5.81;100.00
13695;BME280;6919;52.344;14.518;2023-04-30T04:19:37;101272.91;;;6.04;100.00
13695;BME280;6919;52.344;14.518;2023-04-30T04:22:05;101280.69;;;6.07;100.00
13695;BME280;6919;52.344;14.518;2023-04-30T04:24:33;101278.00;;;6.20;100.00
13695;BME280;6919;52.344;14.518;2023-04-30T04:27:02;101281.91;;;6.27;100.00
13695;BME280;6919;52.344;14.518;2023-04-30T04:29:31;101283.69;;;6.39;100.00
13695;BME280;6919;52.344;14.518;2023-04-30T04:32:00;101284.41;;;6.54;100.00
13695;BME280;6919;52.344;14.518;2023-04-30T04:34:30;101279.22;;;6.63;100.00
13695;BME280;6919;52.344;14.518;2023-04-30T04:37:00;101286.84;;;6.80;100.00
13695;BME280;6919;52.344;14.518;2023-04-30T04:39:29;101284.59;;;6.98;100.00
13695;BME280;6919;52.344;14.518;2023-04-30T04:41:57;101298.25;;;7.06;100.00
13695;BME280;6919;52.344;14.518;2023-04-30T04:44:25;101293.44;;;7.22;100.00
13695;BME280;6919;52.344;14.518;2023-04-30T04:46:53;101294.97;;;7.13;100.00
13695;BME280;6919;52.344;14.518;2023-04-30T04:49:22;101306.84;;;7.44;100.00
13695;BME280;6919;52.344;14.518;2023-04-30T04:51:51;101308.03;;;7.40;100.00
13695;BME280;6919;52.344;14.518;2023-04-30T04:54:21;101317.41;;;7.56;100.00
13695;BME280;6919;52.344;14.518;2023-04-30T04:56:49;101319.03;;;7.70;100.00
13695;BME280;6919;52.344;14.518;2023-04-30T04:59:17;101312.72;;;7.71;100.00
13695;BME280;6919;52.344;14.518;2023-04-30T05:01:45;101317.84;;;7.85;100.00
13695;BME280;6919;52.344;14.518;2023-04-30T05:04:14;101316.41;;;8.03;100.00
13695;BME280;6919;52.344;14.518;2023-04-30T05:06:42;101311.28;;;7.89;100.00
13695;BME280;6919;52.344;14.518;2023-04-30T05:09:10;101322.50;;;8.05;100.00
13695;BME280;6919;52.344;14.518;2023-04-30T05:11:40;101328.53;;;8.18;100.00
13695;BME280;6919;52.344;14.518;2023-04-30T05:14:09;101329.06;;;8.12;100.00
13695;BME280;6919;52.344;14.518;2023-04-30T05:16:38;101331.25;;;8.29;100.00
13695;BME280;6919;52.344;14.518;2023-04-30T05:19:06;101340.59;;;8.56;100.00
13695;BME280;6919;52.344;14.518;2023-04-30T05:21:35;101347.28;;;8.51;100.00
13695;BME280;6919;52.344;14.518;2023-04-30T05:24:04;101353.09;;;8.67;100.00
13695;BME280;6919;52.344;14.518;2023-04-30T05:26:32;101352.34;;;8.87;100.00
13695;BME280;6919;52.344;14.518;2023-04-30T05:29:02;101359.28;;;8.78;100.00
13695;BME280;6919;52.344;14.518;2023-04-30T05:31:30;101360.75;;;8.71;100.00
13695;BME280;6919;52.344;14.518;2023-04-30T05:33:58;101364.94;;;8.96;100.00
13695;BME280;6919;52.344;14.518;2023-04-30T05:36:27;101366.38;;;9.00;100.00
13695;BME280;6919;52.344;14.518;2023-04-30T05:38:55;101374.69;;;8.97;100.00
13695;BME280;6919;52.344;14.518;2023-04-30T05:41:23;101375.06;;;9.24;100.00
13695;BME280;6919;52.344;14.518;2023-04-30T05:43:52;101370.19;;;9.29;100.00
13695;BME280;6919;52.344;14.518;2023-04-30T05:46:22;101384.53;;;9.39;100.00
13695;BME280;6919;52.344;14.518;2023-04-30T05:48:50;101383.00;;;9.57;100.00
13695;BME280;6919;52.344;14.518;2023-04-30T05:51:19;101383.59;;;9.29;100.00
13695;BME280;6919;52.344;14.518;2023-04-30T05:53:47;101388.53;;;9.45;100.00
13695;BME280;6919;52.344;14.518;2023-04-30T05:56:16;101380.25;;;9.68;100.00
13695;BME280;6919;52.344;14.518;2023-04-30T05:58:44;101400.13;;;10.07;100.00
13695;BME280;6919;52.344;14.518;2023-04-30T06:01:13;101392.28;;;10.35;100.00
13695;BME280;6919;52.344;14.518;2023-04-30T06:03:43;101397.28;;;10.49;100.00
13695;BME280;6919;52.344;14.518;2023-04-30T06:06:11;101391.47;;;10.54;100.00
13695;BME280;6919;52.344;14.518;2023-04-30T06:08:39;101395.38;;;10.70;100.00
13695;BME280;6919;52.344;14.518;2023-04-30T06:11:11;101396.97;;;10.82;100.00
13695;BME280;6919;52.344;14.518;2023-04-30T06:13:40;101399.50;;;10.44;100.00
13695;BME280;6919;52.344;14.518;2023-04-30T06:16:09;101400.19;;;10.76;100.00
13695;BME280;6919;52.344;14.518;2023-04-30T06:18:37;101411.03;;;10.65;100.00
13695;BME280;6919;52.344;14.518;2023-04-30T06:21:06;101403.34;;;10.81;100.00
13695;BME280;6919;52.344;14.518;2023-04-30T06:23:35;101404.38;;;11.09;100.00
13695;BME280;6919;52.344;14.518;2023-04-30T06:26:03;101416.63;;;10.92;100.00
13695;BME280;6919;52.344;14.518;2023-04-30T06:28:32;101416.41;;;11.14;100.00
13695;BME280;6919;52.344;14.518;2023-04-30T06:31:00;101417.16;;;11.35;100.00
13695;BME280;6919;52.344;14.518;2023-04-30T06:33:29;101419.44;;;11.49;100.00
13695;BME280;6919;52.344;14.518;2023-04-30T06:35:57;101419.97;;;11.24;100.00
13695;BME280;6919;52.344;14.518;2023-04-30T06:38:27;101427.88;;;11.26;100.00
13695;BME280;6919;52.344;14.518;2023-04-30T06:40:56;101426.69;;;11.68;100.00
13695;BME280;6919;52.344;14.518;2023-04-30T06:43:24;101427.06;;;11.44;100.00
13695;BME280;6919;52.344;14.518;2023-04-30T06:45:52;101424.09;;;11.57;100.00
13695;BME280;6919;52.344;14.518;2023-04-30T06:48:21;101431.44;;;11.36;100.00
13695;BME280;6919;52.344;14.518;2023-04-30T06:50:49;101437.91;;;11.24;100.00
13695;BME280;6919;52.344;14.518;2023-04-30T06:53:17;101437.00;;;11.04;100.00
13695;BME280;6919;52.344;14.518;2023-04-30T06:55:48;101439.53;;;11.64;100.00
13695;BME280;6919;52.344;14.518;2023-04-30T06:58:16;101426.75;;;11.47;100.00
13695;BME280;6919;52.344;14.518;2023-04-30T07:00:46;101431.31;;;11.37;100.00
13695;BME280;6919;52.344;14.518;2023-04-30T07:03:14;101431.34;;;11.66;100.00
13695;BME280;6919;52.344;14.518;2023-04-30T07:05:45;101421.13;;;11.60;100.00
13695;BME280;6919;52.344;14.518;2023-04-30T07:08:13;101423.25;;;12.14;100.00
13695;BME280;6919;52.344;14.518;2023-04-30T07:10:42;101419.28;;;12.08;100.00
13695;BME280;6919;52.344;14.518;2023-04-30T07:13:11;101416.38;;;11.92;100.00
13695;BME280;6919;52.344;14.518;2023-04-30T07:15:40;101420.88;;;12.01;100.00
13695;BME280;6919;52.344;14.518;2023-04-30T07:18:08;101429.63;;;12.03;100.00
13695;BME280;6919;52.344;14.518;2023-04-30T07:20:37;101432.16;;;12.24;100.00
13695;BME280;6919;52.344;14.518;2023-04-30T07:23:05;101438.94;;;12.18;100.00
13695;BME280;6919;52.344;14.518;2023-04-30T07:25:34;101436.28;;;12.09;100.00
13695;BME280;6919;52.344;14.518;2023-04-30T07:28:02;101427.63;;;12.05;100.00
13695;BME280;6919;52.344;14.518;2023-04-30T07:30:32;101434.25;;;12.20;100.00
13695;BME280;6919;52.344;14.518;2023-04-30T07:33:00;101433.44;;;12.01;100.00
13695;BME280;6919;52.344;14.518;2023-04-30T07:35:29;101434.13;;;12.12;100.00
13695;BME280;6919;52.344;14.518;2023-04-30T07:37:57;101437.88;;;11.92;100.00
13695;BME280;6919;52.344;14.518;2023-04-30T07:40:25;101440.41;;;12.03;100.00
13695;BME280;6919;52.344;14.518;2023-04-30T07:43:02;101442.03;;;12.23;100.00
13695;BME280;6919;52.344;14.518;2023-04-30T07:45:33;101441.41;;;12.48;100.00
13695;BME280;6919;52.344;14.518;2023-04-30T07:48:01;101435.84;;;12.23;100.00
13695;BME280;6919;52.344;14.518;2023-04-30T07:50:30;101446.41;;;12.43;100.00
13695;BME280;6919;52.344;14.518;2023-04-30T07:53:01;101440.75;;;12.73;100.00
13695;BME280;6919;52.344;14.518;2023-04-30T07:55:29;101449.47;;;12.58;98.97
13695;BME280;6919;52.344;14.518;2023-04-30T07:57:57;101447.09;;;12.55;100.00
13695;BME280;6919;52.344;14.518;2023-04-30T08:00:28;101446.75;;;12.67;92.49
13695;BME280;6919;52.344;14.518;2023-04-30T08:02:58;101450.31;;;12.58;86.68
13695;BME280;6919;52.344;14.518;2023-04-30T08:05:27;101454.22;;;12.37;97.63
13695;BME280;6919;52.344;14.518;2023-04-30T08:07:56;101452.78;;;12.33;98.86
13695;BME280;6919;52.344;14.518;2023-04-30T08:10:26;101449.09;;;12.43;100.00
13695;BME280;6919;52.344;14.518;2023-04-30T08:12:54;101450.59;;;12.65;100.00
13695;BME280;6919;52.344;14.518;2023-04-30T08:15:23;101445.53;;;12.52;100.00
13695;BME280;6919;52.344;14.518;2023-04-30T08:17:52;101456.53;;;13.05;98.99
13695;BME280;6919;52.344;14.518;2023-04-30T08:20:22;101452.53;;;13.36;94.82
13695;BME280;6919;52.344;14.518;2023-04-30T08:22:51;101449.84;;;12.72;94.42
13695;BME280;6919;52.344;14.518;2023-04-30T08:25:19;101454.06;;;12.84;96.66
13695;BME280;6919;52.344;14.518;2023-04-30T08:27:48;101457.28;;;13.24;95.54
13695;BME280;6919;52.344;14.518;2023-04-30T08:30:16;101455.16;;;12.91;100.00
13695;BME280;6919;52.344;14.518;2023-04-30T08:32:45;101464.13;;;13.19;94.65
13695;BME280;6919;52.344;14.518;2023-04-30T08:35:13;101455.63;;;13.14;91.01
13695;BME280;6919;52.344;14.518;2023-04-30T08:37:44;101456.84;;;13.29;95.52
13695;BME280;6919;52.344;14.518;2023-04-30T08:40:12;101465.13;;;13.18;89.41
13695;BME280;6919;52.344;14.518;2023-04-30T08:42:49;101459.59;;;11.60;83.66
13695;BME280;6919;52.344;14.518;2023-04-30T08:45:20;101462.28;;;12.18;88.39
13695;BME280;6919;52.344;14.518;2023-04-30T08:47:49;101458.19;;;12.79;83.60
13695;BME280;6919;52.344;14.518;2023-04-30T08:50:19;101468.06;;;13.42;83.40
13695;BME280;6919;52.344;14.518;2023-04-30T08:52:48;101463.81;;;13.84;74.36
13695;BME280;6919;52.344;14.518;2023-04-30T08:55:17;101460.41;;;13.20;63.93
13695;BME280;6919;52.344;14.518;2023-04-30T08:57:45;101454.69;;;12.96;72.80
13695;BME280;6919;52.344;14.518;2023-04-30T09:00:14;101459.47;;;13.56;75.27
13695;BME280;6919;52.344;14.518;2023-04-30T09:02:43;101453.00;;;13.04;74.67
13695;BME280;6919;52.344;14.518;2023-04-30T09:05:14;101466.59;;;13.03;71.13
13695;BME280;6919;52.344;14.518;2023-04-30T09:07:44;101453.06;;;13.22;69.88
13695;BME280;6919;52.344;14.518;2023-04-30T09:10:18;101455.16;;;12.91;66.36
13695;BME280;6919;52.344;14.518;2023-04-30T09:12:58;101457.72;;;13.20;69.20
13695;BME280;6919;52.344;14.518;2023-04-30T09:15:27;101457.72;;;13.47;63.01
13695;BME280;6919;52.344;14.518;2023-04-30T09:18:11;101460.78;;;12.98;57.80
13695;BME280;6919;52.344;14.518;2023-04-30T09:20:56;101463.03;;;13.56;62.38
13695;BME280;6919;52.344;14.518;2023-04-30T09:23:24;101462.97;;;13.66;62.17
13695;BME280;6919;52.344;14.518;2023-04-30T09:25:54;101470.97;;;13.75;60.43
13695;BME280;6919;52.344;14.518;2023-04-30T09:28:23;101472.66;;;13.59;55.38
13695;BME280;6919;52.344;14.518;2023-04-30T09:30:55;101472.84;;;13.75;52.37
13695;BME280;6919;52.344;14.518;2023-04-30T09:33:24;101473.50;;;13.77;53.06
13695;BME280;6919;52.344;14.518;2023-04-30T09:35:52;101474.28;;;13.69;53.71
13695;BME280;6919;52.344;14.518;2023-04-30T09:38:29;101466.25;;;13.60;59.84
13695;BME280;6919;52.344;14.518;2023-04-30T09:41:00;101466.47;;;13.49;60.16
13695;BME280;6919;52.344;14.518;2023-04-30T09:43:29;101467.25;;;13.14;60.13
13695;BME280;6919;52.344;14.518;2023-04-30T09:45:58;101467.81;;;13.18;57.18
13695;BME280;6919;52.344;14.518;2023-04-30T09:48:27;101473.66;;;13.75;60.61
13695;BME280;6919;52.344;14.518;2023-04-30T09:50:55;101464.81;;;13.83;55.16
13695;BME280;6919;52.344;14.518;2023-04-30T09:53:24;101462.13;;;13.83;56.19
13695;BME280;6919;52.344;14.518;2023-04-30T09:55:53;101471.81;;;14.11;53.64
13695;BME280;6919;52.344;14.518;2023-04-30T09:58:27;101465.69;;;13.83;56.00
13695;BME280;6919;52.344;14.518;2023-04-30T10:00:59;101454.63;;;14.12;54.72
13695;BME280;6919;52.344;14.518;2023-04-30T10:03:31;101463.78;;;14.19;54.85
13695;BME280;6919;52.344;14.518;2023-04-30T10:06:00;101454.34;;;13.80;54.87
13695;BME280;6919;52.344;14.518;2023-04-30T10:08:35;101456.94;;;14.07;53.75
13695;BME280;6919;52.344;14.518;2023-04-30T10:11:09;101451.69;;;14.23;51.89
13695;BME280;6919;52.344;14.518;2023-04-30T10:13:51;101451.00;;;13.51;50.76
13695;BME280;6919;52.344;14.518;2023-04-30T10:16:33;101452.63;;;13.44;53.04
13695;BME280;6919;52.344;14.518;2023-04-30T10:19:13;101443.38;;;13.99;54.93
13695;BME280;6919;52.344;14.518;2023-04-30T10:21:45;101442.78;;;13.70;53.58
13695;BME280;6919;52.344;14.518;2023-04-30T10:24:15;101455.31;;;13.96;53.82
13695;BME280;6919;52.344;14.518;2023-04-30T10:26:46;101450.19;;;14.46;48.96
13695;BME280;6919;52.344;14.518;2023-04-30T10:29:17;101445.13;;;14.25;44.29
13695;BME280;6919;52.344;14.518;2023-04-30T10:31:48;101457.72;;;14.17;48.24
13695;BME280;6919;52.344;14.518;2023-04-30T10:34:31;101448.16;;;13.70;47.72
13695;BME280;6919;52.344;14.518;2023-04-30T10:37:10;101440.78;;;13.72;50.63
13695;BME280;6919;52.344;14.518;2023-04-30T10:39:40;101442.59;;;14.06;49.12
13695;BME280;6919;52.344;14.518;2023-04-30T10:42:09;101442.81;;;14.13;48.38
13695;BME280;6919;52.344;14.518;2023-04-30T10:44:40;101446.84;;;14.26;50.47
13695;BME280;6919;52.344;14.518;2023-04-30T10:47:09;101443.91;;;14.37;49.80
13695;BME280;6919;52.344;14.518;2023-04-30T10:49:37;101434.66;;;14.73;49.38
13695;BME280;6919;52.344;14.518;2023-04-30T10:52:10;101439.88;;;14.67;48.11
13695;BME280;6919;52.344;14.518;2023-04-30T10:54:48;101428.53;;;14.63;48.82
13695;BME280;6919;52.344;14.518;2023-04-30T10:57:20;101444.22;;;14.60;49.43
13695;BME280;6919;52.344;14.518;2023-04-30T11:00:20;101446.44;;;14.64;47.34
13695;BME280;6919;52.344;14.518;2023-04-30T11:02:56;101443.66;;;14.56;47.87
13695;BME280;6919;52.344;14.518;2023-04-30T11:05:36;101437.91;;;14.77;50.01
13695;BME280;6919;52.344;14.518;2023-04-30T11:08:10;101439.25;;;14.47;49.45
13695;BME280;6919;52.344;14.518;2023-04-30T11:10:57;101437.00;;;15.02;52.34
13695;BME280;6919;52.344;14.518;2023-04-30T11:13:26;101449.56;;;14.86;46.81
13695;BME280;6919;52.344;14.518;2023-04-30T11:16:02;101434.22;;;14.86;44.90
13695;BME280;6919;52.344;14.518;2023-04-30T11:18:31;101433.47;;;15.10;46.96
13695;BME280;6919;52.344;14.518;2023-04-30T11:21:01;101432.28;;;15.12;48.19
13695;BME280;6919;52.344;14.518;2023-04-30T11:23:33;101426.41;;;15.09;47.56
13695;BME280;6919;52.344;14.518;2023-04-30T11:26:08;101427.91;;;15.11;47.69
13695;BME280;6919;52.344;14.518;2023-04-30T11:28:37;101440.34;;;14.96;46.08
13695;BME280;6919;52.344;14.518;2023-04-30T11:31:07;101433.69;;;15.16;47.57
13695;BME280;6919;52.344;14.518;2023-04-30T11:33:35;101436.75;;;15.29;45.11
13695;BME280;6919;52.344;14.518;2023-04-30T11:36:04;101426.56;;;15.07;45.81
13695;BME280;6919;52.344;14.518;2023-04-30T11:38:36;101428.72;;;15.37;44.81
13695;BME280;6919;52.344;14.518;2023-04-30T11:41:05;101431.25;;;15.39;44.26
13695;BME280;6919;52.344;14.518;2023-04-30T11:43:34;101430.13;;;15.16;46.03
13695;BME280;6919;52.344;14.518;2023-04-30T11:46:10;101420.41;;;14.89;45.29
13695;BME280;6919;52.344;14.518;2023-04-30T11:48:40;101429.66;;;15.20;44.50
13695;BME280;6919;52.344;14.518;2023-04-30T11:51:18;101418.75;;;14.96;45.66
13695;BME280;6919;52.344;14.518;2023-04-30T11:53:49;101423.88;;;15.57;45.74
13695;BME280;6919;52.344;14.518;2023-04-30T11:56:19;101424.03;;;15.71;44.33
13695;BME280;6919;52.344;14.518;2023-04-30T11:58:50;101412.38;;;15.63;44.44
13695;BME280;6919;52.344;14.518;2023-04-30T12:01:21;101417.34;;;14.84;43.19
13695;BME280;6919;52.344;14.518;2023-04-30T12:03:55;101422.59;;;15.35;43.64
13695;BME280;6919;52.344;14.518;2023-04-30T12:06:35;101426.69;;;15.47;44.31
13695;BME280;6919;52.344;14.518;2023-04-30T12:09:04;101408.34;;;15.09;43.91
13695;BME280;6919;52.344;14.518;2023-04-30T12:11:35;101417.00;;;15.29;44.15
13695;BME280;6919;52.344;14.518;2023-04-30T12:14:05;101417.59;;;15.48;44.53
13695;BME280;6919;52.344;14.518;2023-04-30T12:16:42;101410.88;;;16.00;43.02
13695;BME280;6919;52.344;14.518;2023-04-30T12:19:16;101419.47;;;16.20;43.07
13695;BME280;6919;52.344;14.518;2023-04-30T12:21:46;101420.16;;;15.74;42.38
13695;BME280;6919;52.344;14.518;2023-04-30T12:24:16;101407.84;;;15.95;41.56
13695;BME280;6919;52.344;14.518;2023-04-30T12:26:45;101423.22;;;16.19;43.74
13695;BME280;6919;52.344;14.518;2023-04-30T12:29:16;101417.78;;;16.19;42.65
13695;BME280;6919;52.344;14.518;2023-04-30T12:31:48;101419.81;;;16.09;39.88
13695;BME280;6919;52.344;14.518;2023-04-30T12:34:18;101413.25;;;15.87;40.82
13695;BME280;6919;52.344;14.518;2023-04-30T12:36:46;101411.72;;;16.49;39.93
13695;BME280;6919;52.344;14.518;2023-04-30T12:39:15;101408.78;;;16.66;38.85
13695;BME280;6919;52.344;14.518;2023-04-30T12:41:46;101408.59;;;17.14;39.29
13695;BME280;6919;52.344;14.518;2023-04-30T12:44:17;101405.75;;;17.69;38.62
13695;BME280;6919;52.344;14.518;2023-04-30T12:46:48;101409.47;;;18.28;38.22
13695;BME280;6919;52.344;14.518;2023-04-30T12:49:24;101422.38;;;18.77;36.36
13695;BME280;6919;52.344;14.518;2023-04-30T12:51:58;101407.44;;;19.67;35.45
13695;BME280;6919;52.344;14.518;2023-04-30T12:54:30;101397.91;;;19.98;35.71
13695;BME280;6919;52.344;14.518;2023-04-30T12:57:01;101407.25;;;20.66;33.64
13695;BME280;6919;52.344;14.518;2023-04-30T12:59:32;101404.00;;;20.22;34.65
13695;BME280;6919;52.344;14.518;2023-04-30T13:02:11;101406.63;;;20.64;31.25
13695;BME280;6919;52.344;14.518;2023-04-30T13:04:41;101397.28;;;19.40;32.18